Time;durP1;ratioP1;P1;durP2;ratioP2;P2;SDS_P1;SDS_P2;PMS_P1;PMS_P2;Temp;Humidity;BMP_temperature;BMP_pressure;BME280_temperature;BME280_humidity;BME280_pressure;Samples;Min_cycle;Max_cycle;Signal;HPM_P1;HPM_P2
2023/05/22 00:00:40;;;;;;;14.70;11.35;;;13.60;92.80;;;;;;5095185;28;20028;-71
2023/05/22 00:03:07;;;;;;;14.13;11.45;;;13.60;93.10;;;;;;5091513;28;20107;-72
2023/05/22 00:05:39;;;;;;;16.02;12.30;;;13.50;93.00;;;;;;5094024;28;20027;-71
2023/05/22 00:08:10;;;;;;;15.55;11.50;;;13.40;92.80;;;;;;5093483;28;20019;-71
2023/05/22 00:10:39;;;;;;;13.38;10.90;;;13.40;92.60;;;;;;5091079;28;20602;-71
2023/05/22 00:13:05;;;;;;;16.73;12.00;;;13.40;92.70;;;;;;5090536;28;20028;-72
2023/05/22 00:15:31;;;;;;;16.88;12.77;;;13.40;92.50;;;;;;5089122;28;20440;-72
2023/05/22 00:17:57;;;;;;;16.35;12.48;;;13.40;92.40;;;;;;5067644;28;20028;-71
2023/05/22 00:20:23;;;;;;;15.80;11.88;;;13.40;92.40;;;;;;5086656;28;20024;-71
2023/05/22 00:22:48;;;;;;;16.50;11.55;;;13.40;92.90;;;;;;5085280;28;20047;-72
2023/05/22 00:25:18;;;;;;;16.13;12.88;;;13.40;92.90;;;;;;5066374;28;20111;-72
2023/05/22 00:27:44;;;;;;;14.98;11.95;;;13.40;92.80;;;;;;5087412;28;20047;-72
2023/05/22 00:30:10;;;;;;;14.57;11.75;;;13.40;92.90;;;;;;5085324;28;20113;-72
2023/05/22 00:32:36;;;;;;;15.13;11.93;;;13.30;92.70;;;;;;5085990;28;20024;-72
2023/05/22 00:35:02;;;;;;;15.75;11.82;;;13.20;92.00;;;;;;5086584;28;20431;-72
2023/05/22 00:37:27;;;;;;;16.52;13.07;;;13.20;91.60;;;;;;5083830;28;20126;-72
2023/05/22 00:39:53;;;;;;;16.75;13.00;;;13.10;90.90;;;;;;5084991;28;20043;-72
2023/05/22 00:42:19;;;;;;;17.55;13.48;;;13.10;90.20;;;;;;5084982;28;20032;-72
2023/05/22 00:44:44;;;;;;;21.15;14.02;;;13.10;89.50;;;;;;5086076;28;20095;-72
2023/05/22 00:47:10;;;;;;;18.67;12.40;;;13.10;89.50;;;;;;5087355;28;20028;-72
2023/05/22 00:49:35;;;;;;;16.73;13.13;;;13.10;89.80;;;;;;5089206;28;20039;-72
2023/05/22 00:52:02;;;;;;;19.48;13.55;;;13.10;89.80;;;;;;5088824;28;20036;-72
2023/05/22 00:54:29;;;;;;;19.92;14.45;;;13.10;89.70;;;;;;5090308;28;20024;-71
2023/05/22 00:56:55;;;;;;;15.52;13.02;;;13.10;89.90;;;;;;5085804;28;20337;-72
2023/05/22 00:59:20;;;;;;;14.75;12.45;;;13.10;90.20;;;;;;5087542;28;20046;-72
2023/05/22 01:01:47;;;;;;;16.30;12.18;;;13.20;90.70;;;;;;5062989;28;20047;-72
2023/05/22 01:04:14;;;;;;;17.60;13.00;;;13.20;90.80;;;;;;5092582;28;20020;-72
2023/05/22 01:06:40;;;;;;;17.95;13.82;;;13.20;90.60;;;;;;5088556;28;20467;-72
2023/05/22 01:09:14;;;;;;;16.60;13.02;;;13.10;90.10;;;;;;5069871;28;20103;-72
2023/05/22 01:11:54;;;;;;;16.77;14.00;;;13.00;89.30;;;;;;5091515;28;20031;-72
2023/05/22 01:14:35;;;;;;;19.20;13.07;;;12.90;88.20;;;;;;5074287;28;20039;-72
2023/05/22 01:17:27;;;;;;;17.95;12.93;;;12.90;87.50;;;;;;5072333;28;20024;-72
2023/05/22 01:20:14;;;;;;;17.05;13.70;;;12.90;87.50;;;;;;5084620;28;20051;-72
2023/05/22 01:22:50;;;;;;;17.58;13.68;;;12.90;87.90;;;;;;5094026;28;20058;-72
2023/05/22 01:25:34;;;;;;;18.00;13.93;;;12.90;87.50;;;;;;5088431;28;20024;-72
2023/05/22 01:28:24;;;;;;;17.67;14.13;;;12.90;87.70;;;;;;5088726;28;20035;-72
2023/05/22 01:31:07;;;;;;;16.85;13.43;;;12.90;87.60;;;;;;5086800;28;20020;-72
2023/05/22 01:33:42;;;;;;;17.77;13.48;;;12.80;87.20;;;;;;5083259;28;20176;-72
2023/05/22 01:36:08;;;;;;;16.65;13.25;;;12.80;87.20;;;;;;5091829;28;20094;-72
2023/05/22 01:38:36;;;;;;;16.85;14.05;;;12.70;86.80;;;;;;5084356;28;20293;-72
2023/05/22 01:41:03;;;;;;;18.38;14.63;;;12.70;86.30;;;;;;5070214;28;20031;-72
2023/05/22 01:43:28;;;;;;;19.05;14.18;;;12.60;85.80;;;;;;5086048;28;20321;-72
2023/05/22 01:45:54;;;;;;;16.73;13.80;;;12.60;85.00;;;;;;5086217;28;20019;-72
2023/05/22 01:48:22;;;;;;;17.02;13.57;;;12.70;84.90;;;;;;5085361;28;20024;-72
2023/05/22 01:50:52;;;;;;;19.77;14.50;;;12.70;84.60;;;;;;5071006;28;20417;-72
2023/05/22 01:53:31;;;;;;;16.98;13.68;;;12.70;84.60;;;;;;5095123;28;20024;-72
2023/05/22 01:56:11;;;;;;;16.00;13.43;;;12.80;84.70;;;;;;5086576;28;20416;-72
2023/05/22 01:58:54;;;;;;;16.20;13.75;;;12.90;85.40;;;;;;5087921;28;20439;-72
2023/05/22 02:01:23;;;;;;;21.45;14.48;;;12.90;86.00;;;;;;5092129;28;20024;-72
2023/05/22 02:03:55;;;;;;;18.25;14.52;;;12.90;85.90;;;;;;5085455;28;20030;-72
2023/05/22 02:06:21;;;;;;;17.25;13.90;;;13.00;86.00;;;;;;5084778;28;20024;-72
2023/05/22 02:08:47;;;;;;;17.77;14.88;;;13.00;86.40;;;;;;5082836;28;20032;-72
2023/05/22 02:11:15;;;;;;;17.80;14.52;;;13.10;86.70;;;;;;5085278;28;20043;-72
2023/05/22 02:13:41;;;;;;;19.88;14.20;;;13.20;87.80;;;;;;5082874;28;20024;-72
2023/05/22 02:16:07;;;;;;;16.65;13.98;;;13.30;88.00;;;;;;5093796;28;20029;-71
2023/05/22 02:18:33;;;;;;;16.98;14.23;;;13.30;88.10;;;;;;5079934;28;20028;-72
2023/05/22 02:20:59;;;;;;;18.63;12.98;;;13.40;88.30;;;;;;5085667;28;20035;-73
2023/05/22 02:23:28;;;;;;;15.95;13.50;;;13.40;88.30;;;;;;5081626;28;20414;-73
2023/05/22 02:25:54;;;;;;;15.93;12.93;;;13.50;88.70;;;;;;5080376;28;20039;-72
2023/05/22 02:28:20;;;;;;;18.77;13.63;;;13.50;89.30;;;;;;5083172;28;20027;-72
2023/05/22 02:30:45;;;;;;;15.15;12.43;;;13.50;89.40;;;;;;5086838;28;20102;-72
2023/05/22 02:33:11;;;;;;;16.67;13.48;;;13.40;89.30;;;;;;5085483;28;20032;-72
2023/05/22 02:35:37;;;;;;;17.45;14.60;;;13.40;88.70;;;;;;5063986;28;20046;-72
2023/05/22 02:38:02;;;;;;;17.80;13.38;;;13.40;88.80;;;;;;5084184;28;20577;-72
2023/05/22 02:40:28;;;;;;;14.80;12.40;;;13.50;88.80;;;;;;5081297;28;20020;-72
2023/05/22 02:42:53;;;;;;;17.20;13.60;;;13.60;89.10;;;;;;5082208;28;20036;-72
2023/05/22 02:45:21;;;;;;;17.48;13.48;;;13.60;89.50;;;;;;5083191;28;20065;-72
2023/05/22 02:47:46;;;;;;;15.57;12.70;;;13.70;89.60;;;;;;5084485;28;20056;-72
2023/05/22 02:50:12;;;;;;;16.70;13.90;;;13.70;89.80;;;;;;5079385;28;20075;-72
2023/05/22 02:52:38;;;;;;;17.83;14.60;;;13.70;89.00;;;;;;5089245;28;20035;-72
2023/05/22 02:55:04;;;;;;;16.23;13.63;;;13.90;90.60;;;;;;5088477;28;20418;-72
2023/05/22 02:57:29;;;;;;;13.98;11.52;;;14.00;91.80;;;;;;5082481;28;20031;-72
2023/05/22 02:59:56;;;;;;;17.35;13.35;;;14.00;92.40;;;;;;5087716;28;20440;-72
2023/05/22 03:02:24;;;;;;;15.88;13.55;;;13.90;92.90;;;;;;5088350;28;20103;-72
2023/05/22 03:04:50;;;;;;;16.67;12.90;;;13.80;91.70;;;;;;5085714;28;20020;-72
2023/05/22 03:07:15;;;;;;;15.55;12.85;;;13.80;91.00;;;;;;5092513;28;20035;-72
2023/05/22 03:09:41;;;;;;;15.80;13.18;;;13.80;91.20;;;;;;5066029;28;20032;-72
2023/05/22 03:12:07;;;;;;;17.35;13.80;;;13.80;91.20;;;;;;5086917;28;20111;-72
2023/05/22 03:14:33;;;;;;;17.35;13.25;;;13.90;91.60;;;;;;5094541;28;20028;-72
2023/05/22 03:16:59;;;;;;;17.40;13.25;;;14.00;91.60;;;;;;5071691;28;20031;-72
2023/05/22 03:19:25;;;;;;;18.42;13.25;;;14.00;92.10;;;;;;5086433;28;20043;-72
2023/05/22 03:21:53;;;;;;;16.75;12.25;;;14.10;92.40;;;;;;5069550;28;20025;-72
2023/05/22 03:24:18;;;;;;;15.18;12.50;;;14.10;92.40;;;;;;5085913;28;20034;-72
2023/05/22 03:26:44;;;;;;;15.88;12.23;;;14.20;92.40;;;;;;5091097;28;20020;-72
2023/05/22 03:29:10;;;;;;;14.57;11.65;;;14.20;92.30;;;;;;5092086;28;20056;-72
2023/05/22 03:31:35;;;;;;;16.33;12.68;;;14.20;92.30;;;;;;5089333;28;20020;-72
2023/05/22 03:34:01;;;;;;;17.75;13.68;;;14.20;92.20;;;;;;5086748;28;20039;-72
2023/05/22 03:36:28;;;;;;;16.70;13.57;;;14.20;92.20;;;;;;5086473;28;20055;-72
2023/05/22 03:38:54;;;;;;;19.75;13.13;;;14.10;91.60;;;;;;5086597;28;20020;-72
2023/05/22 03:41:19;;;;;;;18.50;13.13;;;14.20;91.50;;;;;;5088501;28;20312;-72
2023/05/22 03:43:45;;;;;;;17.08;13.75;;;14.20;91.80;;;;;;5081070;28;20381;-73
2023/05/22 03:46:10;;;;;;;15.40;12.90;;;14.20;91.40;;;;;;5089063;28;20568;-72
2023/05/22 03:48:37;;;;;;;18.27;13.07;;;14.20;91.40;;;;;;5087506;28;20146;-72
2023/05/22 03:51:03;;;;;;;19.17;13.00;;;14.30;92.40;;;;;;5088455;28;20109;-72
2023/05/22 03:53:28;;;;;;;15.55;12.98;;;14.30;92.10;;;;;;5088870;28;20086;-72
2023/05/22 03:55:56;;;;;;;16.70;13.05;;;14.30;91.90;;;;;;5087153;28;20106;-72
2023/05/22 03:58:24;;;;;;;16.05;12.85;;;14.40;92.00;;;;;;5086653;28;20027;-72
2023/05/22 04:00:51;;;;;;;16.15;12.43;;;14.40;92.30;;;;;;5089213;28;20032;-72
2023/05/22 04:03:18;;;;;;;17.15;13.43;;;14.40;92.00;;;;;;5090253;28;20047;-72
2023/05/22 04:05:46;;;;;;;15.43;12.52;;;14.50;91.90;;;;;;5071718;28;20317;-72
2023/05/22 04:08:12;;;;;;;17.50;13.38;;;14.50;92.10;;;;;;5082792;28;20023;-72
2023/05/22 04:10:37;;;;;;;17.65;13.50;;;14.50;92.10;;;;;;5089389;28;20193;-72
2023/05/22 04:13:04;;;;;;;15.65;12.35;;;14.60;92.60;;;;;;5088068;28;20082;-72
2023/05/22 04:15:32;;;;;;;17.13;13.88;;;14.60;92.50;;;;;;5086738;28;20085;-72
2023/05/22 04:18:01;;;;;;;16.48;12.73;;;14.60;92.40;;;;;;5089541;28;20039;-72
2023/05/22 04:20:27;;;;;;;16.50;13.05;;;14.60;92.00;;;;;;5084197;28;20036;-72
2023/05/22 04:22:56;;;;;;;15.45;12.30;;;14.70;91.50;;;;;;5065252;28;20032;-72
2023/05/22 04:25:24;;;;;;;16.92;12.88;;;14.70;91.50;;;;;;5061473;28;20028;-72
2023/05/22 04:27:50;;;;;;;17.88;13.88;;;14.80;91.70;;;;;;5081291;28;20069;-72
2023/05/22 04:30:16;;;;;;;17.48;12.77;;;14.80;91.60;;;;;;5088393;28;20031;-72
2023/05/22 04:32:42;;;;;;;15.77;12.27;;;14.90;92.10;;;;;;5088011;28;20035;-72
2023/05/22 04:35:08;;;;;;;15.68;12.77;;;14.90;91.90;;;;;;5083546;28;20031;-72
2023/05/22 04:37:34;;;;;;;16.13;12.77;;;15.00;92.40;;;;;;5082520;28;20047;-72
2023/05/22 04:40:05;;;;;;;15.80;12.40;;;15.00;93.00;;;;;;5079146;28;20043;-72
2023/05/22 04:42:30;;;;;;;14.68;11.75;;;15.10;93.00;;;;;;5085506;28;20031;-72
2023/05/22 04:44:58;;;;;;;14.20;12.23;;;15.10;92.90;;;;;;5080777;28;20642;-72
2023/05/22 04:47:24;;;;;;;15.48;12.07;;;15.30;93.00;;;;;;5082498;28;20031;-72
2023/05/22 04:49:50;;;;;;;15.85;12.15;;;15.40;93.50;;;;;;5083265;28;20024;-72
2023/05/22 04:52:16;;;;;;;13.98;11.30;;;15.50;93.60;;;;;;5083179;28;20031;-72
2023/05/22 04:54:43;;;;;;;17.45;12.10;;;15.60;94.40;;;;;;5080416;28;20032;-72
2023/05/22 04:57:08;;;;;;;15.90;11.77;;;15.70;94.90;;;;;;5082477;28;20345;-72
2023/05/22 04:59:38;;;;;;;16.08;11.63;;;15.80;94.90;;;;;;5085337;28;20020;-72
2023/05/22 05:02:04;;;;;;;14.90;11.48;;;15.90;95.40;;;;;;5078760;28;20405;-72
2023/05/22 05:04:30;;;;;;;13.30;11.30;;;16.00;95.70;;;;;;5082025;28;20028;-72
2023/05/22 05:06:56;;;;;;;14.88;11.68;;;16.20;95.80;;;;;;5092065;28;20023;-72
2023/05/22 05:09:23;;;;;;;14.45;11.65;;;16.30;96.90;;;;;;5068195;28;20017;-72
2023/05/22 05:11:49;;;;;;;12.88;10.45;;;16.40;96.80;;;;;;5087023;28;20032;-74
2023/05/22 05:14:15;;;;;;;15.40;10.75;;;16.50;97.10;;;;;;5089026;28;20024;-74
2023/05/22 05:16:41;;;;;;;14.70;11.63;;;16.60;97.20;;;;;;5079873;28;20028;-73
2023/05/22 05:19:07;;;;;;;15.32;12.13;;;16.70;97.20;;;;;;5084689;28;20035;-72
2023/05/22 05:21:33;;;;;;;14.23;11.55;;;16.70;97.50;;;;;;5090375;28;20023;-73
2023/05/22 05:23:58;;;;;;;14.38;12.27;;;16.60;97.30;;;;;;5081794;28;20056;-73
2023/05/22 05:26:25;;;;;;;15.77;12.10;;;16.60;97.40;;;;;;5084109;28;20069;-72
2023/05/22 05:28:51;;;;;;;14.77;11.90;;;16.70;97.20;;;;;;5092209;28;20107;-72
2023/05/22 05:31:18;;;;;;;13.82;11.00;;;16.70;97.40;;;;;;5089566;28;20157;-72
2023/05/22 05:33:43;;;;;;;16.70;12.73;;;16.70;97.20;;;;;;5083738;28;20042;-72
2023/05/22 05:36:09;;;;;;;15.57;11.95;;;16.60;97.30;;;;;;5082814;28;20048;-72
2023/05/22 05:38:37;;;;;;;16.58;12.25;;;16.60;97.50;;;;;;5090815;28;20034;-72
2023/05/22 05:41:03;;;;;;;18.15;13.32;;;16.60;97.20;;;;;;5085575;28;20023;-72
2023/05/22 05:43:29;;;;;;;15.52;12.52;;;16.70;97.10;;;;;;5084338;28;20103;-72
2023/05/22 05:45:54;;;;;;;15.00;11.43;;;16.70;97.40;;;;;;5088993;28;20040;-72
2023/05/22 05:48:20;;;;;;;13.50;11.25;;;16.80;98.00;;;;;;5090838;28;20032;-72
2023/05/22 05:50:46;;;;;;;17.17;11.27;;;17.00;97.80;;;;;;5082663;28;20461;-72
2023/05/22 05:53:11;;;;;;;14.43;11.27;;;17.20;98.00;;;;;;5081783;28;20024;-72
2023/05/22 05:55:37;;;;;;;14.15;11.35;;;17.30;98.00;;;;;;5086399;28;20032;-72
2023/05/22 05:58:02;;;;;;;14.90;11.77;;;17.40;97.70;;;;;;5075592;28;20324;-72
2023/05/22 06:00:28;;;;;;;14.23;11.48;;;17.50;97.70;;;;;;5091416;28;20125;-72
2023/05/22 06:02:53;;;;;;;17.58;11.75;;;17.50;98.00;;;;;;5088170;28;20069;-72
2023/05/22 06:05:20;;;;;;;13.25;10.98;;;17.50;98.00;;;;;;5089228;28;20029;-72
2023/05/22 06:07:47;;;;;;;15.93;10.90;;;17.70;96.60;;;;;;5094477;28;20083;-72
2023/05/22 06:10:13;;;;;;;12.50;10.35;;;17.80;95.80;;;;;;5090780;28;20089;-72
2023/05/22 06:12:38;;;;;;;13.63;10.32;;;18.00;95.10;;;;;;5085167;28;20433;-72
2023/05/22 06:15:06;;;;;;;14.02;10.23;;;18.30;94.50;;;;;;5071237;28;20031;-72
2023/05/22 06:17:32;;;;;;;12.82;10.52;;;18.60;93.80;;;;;;5081998;28;20028;-72
2023/05/22 06:19:58;;;;;;;12.70;10.45;;;18.60;92.90;;;;;;5085271;28;20034;-72
2023/05/22 06:22:25;;;;;;;13.90;10.23;;;18.60;92.90;;;;;;5083902;28;20416;-72
2023/05/22 06:24:53;;;;;;;13.48;10.90;;;18.50;94.00;;;;;;5082326;28;20035;-72
2023/05/22 06:27:22;;;;;;;14.02;10.82;;;18.40;93.40;;;;;;5089078;28;20020;-72
2023/05/22 06:29:51;;;;;;;13.85;10.18;;;18.40;93.60;;;;;;5070234;28;20020;-72
2023/05/22 06:32:28;;;;;;;12.07;10.10;;;18.50;93.70;;;;;;5083649;28;20024;-72
2023/05/22 06:34:53;;;;;;;13.70;10.02;;;18.90;93.60;;;;;;5083073;28;20119;-73
2023/05/22 06:37:19;;;;;;;12.20;9.68;;;19.30;92.50;;;;;;5091541;28;20115;-73
2023/05/22 06:39:45;;;;;;;11.65;9.77;;;19.80;92.50;;;;;;5087813;28;20036;-72
2023/05/22 06:42:10;;;;;;;12.23;9.70;;;20.20;91.60;;;;;;5091133;28;20344;-73
2023/05/22 06:44:36;;;;;;;13.63;9.25;;;20.60;88.90;;;;;;5090218;28;20143;-73
2023/05/22 06:47:01;;;;;;;12.57;9.32;;;21.10;86.40;;;;;;5081736;28;20060;-72
2023/05/22 06:49:27;;;;;;;10.52;8.52;;;21.40;84.80;;;;;;5087046;28;20052;-72
2023/05/22 06:51:52;;;;;;;13.13;10.05;;;21.60;84.90;;;;;;5099151;28;20408;-73
2023/05/22 06:54:20;;;;;;;14.23;10.07;;;21.70;83.90;;;;;;5097890;28;20112;-72
2023/05/22 06:56:45;;;;;;;17.00;10.10;;;21.20;84.30;;;;;;5092051;28;20432;-72
2023/05/22 06:59:11;;;;;;;16.77;10.80;;;20.70;85.80;;;;;;5099009;28;20039;-72
2023/05/22 07:01:36;;;;;;;13.65;10.38;;;20.50;87.00;;;;;;5098853;28;20023;-72
2023/05/22 07:04:04;;;;;;;13.40;10.32;;;20.40;87.80;;;;;;5099086;28;20020;-72
2023/05/22 07:06:37;;;;;;;10.40;8.98;;;20.60;87.20;;;;;;5098776;28;20024;-72
2023/05/22 07:09:04;;;;;;;15.05;10.75;;;20.90;86.80;;;;;;5084259;28;20409;-73
2023/05/22 07:11:30;;;;;;;13.07;10.77;;;20.90;86.60;;;;;;5098093;28;20374;-72
2023/05/22 07:13:55;;;;;;;14.80;11.20;;;20.70;86.80;;;;;;5079197;28;20032;-72
2023/05/22 07:16:22;;;;;;;12.98;10.90;;;20.40;87.80;;;;;;5090313;28;20324;-72
2023/05/22 07:18:48;;;;;;;13.75;10.55;;;20.10;89.80;;;;;;5093036;28;20034;-72
2023/05/22 07:21:13;;;;;;;13.93;10.90;;;20.20;89.80;;;;;;5098546;28;20108;-72
2023/05/22 07:23:39;;;;;;;14.63;11.32;;;19.90;89.70;;;;;;5091584;28;20405;-72
2023/05/22 07:26:05;;;;;;;16.20;11.55;;;19.90;90.30;;;;;;5088207;28;20435;-72
2023/05/22 07:28:31;;;;;;;15.43;11.43;;;19.90;90.10;;;;;;5092687;28;20376;-73
2023/05/22 07:30:56;;;;;;;12.48;10.27;;;20.50;89.70;;;;;;5096039;28;20013;-72
2023/05/22 07:33:22;;;;;;;13.48;9.95;;;21.50;86.70;;;;;;5078856;28;20073;-72
2023/05/22 07:35:47;;;;;;;12.30;10.43;;;22.70;83.40;;;;;;5060862;28;20041;-72
2023/05/22 07:38:13;;;;;;;13.20;10.07;;;23.60;80.00;;;;;;5081115;28;20024;-73
2023/05/22 07:40:38;;;;;;;15.07;11.35;;;23.70;78.60;;;;;;5097471;28;20039;-72
2023/05/22 07:43:04;;;;;;;14.98;10.75;;;23.30;78.90;;;;;;5098583;28;20016;-72
2023/05/22 07:45:29;;;;;;;13.63;11.07;;;22.90;80.20;;;;;;5098843;28;20032;-72
2023/05/22 07:47:57;;;;;;;12.02;10.10;;;22.70;80.60;;;;;;5069661;28;20028;-72
2023/05/22 07:50:25;;;;;;;12.75;9.68;;;22.60;81.40;;;;;;5078423;28;20032;-72
2023/05/22 07:52:51;;;;;;;11.63;9.85;;;23.50;79.70;;;;;;5078575;28;20030;-72
2023/05/22 07:55:16;;;;;;;15.27;10.63;;;24.60;77.60;;;;;;5077205;28;20482;-72
2023/05/22 07:57:42;;;;;;;18.92;13.05;;;25.30;74.80;;;;;;5080998;28;20031;-72
2023/05/22 08:00:08;;;;;;;17.58;12.40;;;25.20;74.00;;;;;;5078289;28;20094;-73
2023/05/22 08:02:35;;;;;;;16.95;12.23;;;25.10;74.90;;;;;;5091097;28;20024;-72
2023/05/22 08:05:01;;;;;;;13.80;11.50;;;24.70;76.30;;;;;;5097558;28;20024;-72
2023/05/22 08:07:26;;;;;;;14.55;11.70;;;24.70;77.00;;;;;;5098467;28;20047;-73
2023/05/22 08:09:52;;;;;;;15.88;12.18;;;25.30;75.60;;;;;;5097260;28;20059;-72
2023/05/22 08:12:17;;;;;;;16.25;11.80;;;25.40;74.20;;;;;;5088593;28;20032;-72
2023/05/22 08:14:43;;;;;;;16.77;12.13;;;25.20;74.90;;;;;;5098352;28;20024;-72
2023/05/22 08:17:08;;;;;;;17.90;12.55;;;25.40;75.60;;;;;;5098364;28;20103;-72
2023/05/22 08:19:34;;;;;;;15.38;11.77;;;25.80;75.10;;;;;;5098078;28;20059;-72
2023/05/22 08:22:02;;;;;;;12.18;10.40;;;25.50;75.90;;;;;;5098292;28;20024;-72
2023/05/22 08:24:29;;;;;;;16.48;12.05;;;26.10;75.80;;;;;;5096947;28;20321;-71
2023/05/22 08:26:57;;;;;;;14.52;12.30;;;26.80;73.40;;;;;;5097277;28;20020;-71
2023/05/22 08:29:22;;;;;;;15.60;11.70;;;26.40;73.80;;;;;;5098021;28;20066;-71
2023/05/22 08:31:48;;;;;;;15.73;12.60;;;26.40;74.20;;;;;;5098053;28;20071;-72
2023/05/22 08:34:14;;;;;;;15.27;12.10;;;26.70;73.80;;;;;;5097781;28;20344;-71
2023/05/22 08:36:39;;;;;;;15.52;12.00;;;26.50;74.70;;;;;;5097723;28;20075;-71
2023/05/22 08:39:06;;;;;;;17.88;13.70;;;26.90;73.40;;;;;;5096546;28;20303;-71
2023/05/22 08:41:31;;;;;;;18.17;12.40;;;27.20;72.20;;;;;;5098023;28;20045;-71
2023/05/22 08:43:57;;;;;;;16.35;12.88;;;26.90;74.10;;;;;;5096090;28;20025;-71
2023/05/22 08:46:27;;;;;;;15.55;12.75;;;26.90;73.90;;;;;;5097727;28;20058;-71
2023/05/22 08:48:56;;;;;;;15.27;12.85;;;27.20;72.60;;;;;;5097573;28;20040;-71
2023/05/22 08:51:27;;;;;;;15.38;13.18;;;27.40;72.40;;;;;;5097684;28;20024;-71
2023/05/22 08:53:55;;;;;;;14.23;12.65;;;28.00;70.80;;;;;;5096506;28;20107;-71
2023/05/22 08:56:21;;;;;;;14.15;11.55;;;27.70;71.80;;;;;;5071508;28;20032;-71
2023/05/22 08:58:47;;;;;;;15.50;10.90;;;27.70;70.50;;;;;;5092336;28;20028;-71
2023/05/22 09:01:13;;;;;;;13.52;11.27;;;28.60;69.90;;;;;;5097367;28;20070;-72
2023/05/22 09:03:38;;;;;;;13.18;11.07;;;28.70;69.50;;;;;;5096676;28;20032;-71
2023/05/22 09:06:08;;;;;;;16.92;11.45;;;29.30;68.30;;;;;;5097358;28;20028;-71
2023/05/22 09:08:33;;;;;;;12.95;10.90;;;29.10;67.80;;;;;;5097334;28;20332;-71
2023/05/22 09:10:59;;;;;;;16.90;12.93;;;29.30;68.50;;;;;;5096022;28;20024;-71
2023/05/22 09:13:30;;;;;;;14.77;11.25;;;29.00;68.50;;;;;;5079648;28;20044;-71
2023/05/22 09:16:06;;;;;;;14.93;10.70;;;29.10;69.00;;;;;;5081215;28;20095;-71
2023/05/22 09:18:31;;;;;;;14.43;11.52;;;29.60;67.60;;;;;;5096898;28;20044;-71
2023/05/22 09:20:58;;;;;;;14.43;11.38;;;29.40;67.30;;;;;;5097110;28;20060;-71
2023/05/22 09:23:27;;;;;;;16.05;11.65;;;29.30;67.50;;;;;;5096926;28;20024;-71
2023/05/22 09:25:59;;;;;;;17.55;12.10;;;29.10;68.20;;;;;;5095831;28;20076;-73
2023/05/22 09:28:25;;;;;;;13.53;11.20;;;28.80;68.40;;;;;;5096857;28;20041;-73
2023/05/22 09:30:53;;;;;;;13.02;11.13;;;28.90;68.40;;;;;;5091812;28;20020;-73
2023/05/22 09:33:21;;;;;;;13.90;10.40;;;28.60;69.80;;;;;;5093532;28;20027;-72
2023/05/22 09:35:47;;;;;;;14.45;12.18;;;28.30;70.00;;;;;;5096583;28;20051;-72
2023/05/22 09:38:13;;;;;;;17.85;11.68;;;28.00;69.60;;;;;;5096772;28;20081;-72
2023/05/22 09:40:39;;;;;;;15.68;10.73;;;27.70;71.20;;;;;;5095496;28;20033;-72
2023/05/22 09:43:09;;;;;;;15.38;10.63;;;27.50;69.10;;;;;;5096501;28;20031;-72
2023/05/22 09:45:35;;;;;;;12.73;11.20;;;27.50;71.20;;;;;;5096671;28;20065;-71
2023/05/22 09:48:05;;;;;;;16.13;11.98;;;27.70;69.30;;;;;;5077777;28;20052;-72
2023/05/22 09:50:31;;;;;;;12.88;10.52;;;27.50;71.10;;;;;;5096535;28;20032;-72
2023/05/22 09:53:01;;;;;;;12.10;10.57;;;27.50;72.10;;;;;;5096563;28;20509;-71
2023/05/22 09:55:28;;;;;;;12.90;10.18;;;27.40;71.70;;;;;;5095182;28;20024;-72
2023/05/22 09:57:54;;;;;;;12.07;10.05;;;28.30;72.20;;;;;;5096454;28;20027;-71
2023/05/22 10:00:22;;;;;;;14.15;10.95;;;28.70;70.90;;;;;;5096212;28;20028;-71
2023/05/22 10:02:57;;;;;;;14.43;10.65;;;28.40;70.00;;;;;;5076087;28;20039;-71
2023/05/22 10:05:28;;;;;;;13.18;9.73;;;28.60;71.00;;;;;;5076129;28;20016;-71
2023/05/22 10:07:56;;;;;;;15.23;10.50;;;28.40;69.10;;;;;;5076007;28;20013;-72
2023/05/22 10:10:23;;;;;;;11.80;10.00;;;28.70;67.60;;;;;;5074629;28;20029;-71
2023/05/22 10:12:51;;;;;;;12.55;9.90;;;29.10;68.80;;;;;;5076162;28;20027;-71
2023/05/22 10:15:18;;;;;;;12.93;10.43;;;29.50;68.50;;;;;;5075673;28;20029;-71
2023/05/22 10:17:43;;;;;;;12.35;9.80;;;29.70;68.60;;;;;;5088633;28;20036;-72
2023/05/22 10:20:10;;;;;;;14.38;10.00;;;29.30;68.20;;;;;;5096120;28;20474;-71
2023/05/22 10:22:37;;;;;;;13.23;9.65;;;29.40;67.20;;;;;;5095997;28;20065;-71
2023/05/22 10:25:04;;;;;;;14.65;9.65;;;28.50;67.40;;;;;;5077503;28;20367;-71
2023/05/22 10:27:30;;;;;;;12.13;8.88;;;29.00;69.20;;;;;;5081968;28;20032;-72
2023/05/22 10:30:09;;;;;;;12.25;10.00;;;29.70;66.40;;;;;;5075876;28;20074;-72
2023/05/22 10:32:49;;;;;;;11.20;9.85;;;30.50;66.80;;;;;;5059665;28;20055;-71
2023/05/22 10:35:28;;;;;;;14.60;10.13;;;30.50;65.20;;;;;;5075582;28;20440;-71
2023/05/22 10:38:19;;;;;;;14.95;10.30;;;30.40;64.50;;;;;;5075644;28;20044;-71
2023/05/22 10:40:46;;;;;;;11.63;9.45;;;30.50;68.00;;;;;;5078689;28;20028;-71
2023/05/22 10:43:12;;;;;;;11.73;9.70;;;31.10;63.60;;;;;;5087733;28;20032;-71
2023/05/22 10:45:38;;;;;;;12.55;9.43;;;30.80;63.50;;;;;;5076662;28;20363;-72
2023/05/22 10:48:10;;;;;;;10.60;9.18;;;30.40;63.50;;;;;;5075651;28;20020;-72
2023/05/22 10:50:36;;;;;;;11.30;8.57;;;30.30;64.90;;;;;;5075604;28;20066;-72
2023/05/22 10:53:26;;;;;;;10.45;8.50;;;30.40;63.70;;;;;;5075476;28;20371;-71
2023/05/22 10:55:56;;;;;;;11.27;8.65;;;30.60;61.30;;;;;;5074391;28;20025;-71
2023/05/22 10:58:27;;;;;;;9.43;7.30;;;30.30;62.70;;;;;;5075597;28;20024;-71
2023/05/22 11:01:12;;;;;;;11.27;8.80;;;28.70;65.20;;;;;;5083046;28;20429;-71
2023/05/22 11:03:56;;;;;;;13.35;8.40;;;28.00;65.70;;;;;;5078042;28;20417;-71
2023/05/22 11:06:35;;;;;;;10.88;8.77;;;27.40;66.50;;;;;;5095575;28;20028;-71
2023/05/22 11:09:16;;;;;;;11.55;8.68;;;27.90;65.40;;;;;;5094591;28;20036;-71
2023/05/22 11:11:41;;;;;;;10.93;8.50;;;28.00;66.50;;;;;;5095619;28;20035;-71
2023/05/22 11:14:07;;;;;;;10.80;8.57;;;27.90;67.30;;;;;;5095789;28;20110;-71
2023/05/22 11:16:33;;;;;;;11.10;8.93;;;28.30;66.30;;;;;;5079376;28;20025;-71
2023/05/22 11:19:06;;;;;;;10.88;7.88;;;28.70;65.00;;;;;;5075086;28;20027;-71
2023/05/22 11:21:43;;;;;;;9.45;8.30;;;28.70;64.30;;;;;;5075385;28;20028;-71
2023/05/22 11:24:10;;;;;;;11.05;8.80;;;29.40;64.40;;;;;;5077855;28;20135;-71
2023/05/22 11:26:35;;;;;;;11.82;8.77;;;29.10;65.50;;;;;;5078942;28;20313;-71
2023/05/22 11:29:01;;;;;;;12.20;8.90;;;29.00;65.70;;;;;;5079068;28;20029;-71
2023/05/22 11:31:28;;;;;;;11.95;8.55;;;28.60;65.50;;;;;;5093379;28;20028;-71
2023/05/22 11:33:54;;;;;;;11.18;9.10;;;28.70;65.20;;;;;;5099211;28;20039;-71
2023/05/22 11:36:21;;;;;;;10.68;8.82;;;28.20;67.10;;;;;;5098927;28;20047;-71
2023/05/22 11:38:46;;;;;;;12.85;9.73;;;28.40;68.60;;;;;;5098772;28;20020;-71
2023/05/22 11:41:12;;;;;;;11.27;9.05;;;28.60;67.60;;;;;;5098036;28;20428;-71
2023/05/22 11:43:37;;;;;;;11.15;8.18;;;28.80;68.90;;;;;;5098971;28;20095;-71
2023/05/22 11:46:07;;;;;;;10.60;7.95;;;29.00;66.10;;;;;;5097925;28;20107;-71
2023/05/22 11:48:35;;;;;;;10.85;8.68;;;29.00;65.80;;;;;;5098989;28;20414;-71
2023/05/22 11:51:03;;;;;;;13.05;9.20;;;28.80;66.10;;;;;;5080790;28;20028;-71
2023/05/22 11:53:31;;;;;;;12.48;9.50;;;28.90;65.80;;;;;;5098740;28;20047;-71
2023/05/22 11:56:04;;;;;;;10.98;8.60;;;28.30;68.00;;;;;;5079577;28;20028;-71
2023/05/22 11:58:31;;;;;;;10.67;8.27;;;29.00;68.50;;;;;;5098636;28;20353;-71
2023/05/22 12:01:01;;;;;;;11.88;8.85;;;29.80;66.40;;;;;;5094670;28;20421;-71
2023/05/22 12:03:29;;;;;;;10.30;8.68;;;29.90;64.50;;;;;;5094475;28;20040;-72
2023/05/22 12:05:56;;;;;;;12.80;8.77;;;29.30;65.80;;;;;;5098484;28;20077;-71
2023/05/22 12:08:23;;;;;;;13.27;8.73;;;29.50;67.10;;;;;;5098567;28;20031;-71
2023/05/22 12:10:53;;;;;;;12.45;8.73;;;29.40;64.80;;;;;;5096219;28;20028;-71
2023/05/22 12:13:27;;;;;;;13.55;8.20;;;29.20;64.30;;;;;;5098032;28;20073;-72
2023/05/22 12:15:54;;;;;;;9.68;7.13;;;29.70;64.30;;;;;;5097507;28;20447;-71
2023/05/22 12:18:20;;;;;;;10.98;7.80;;;30.70;60.40;;;;;;5094372;28;20055;-71
2023/05/22 12:20:46;;;;;;;10.73;7.50;;;31.20;62.40;;;;;;5078119;28;20111;-73
2023/05/22 12:23:25;;;;;;;8.85;6.70;;;30.80;59.20;;;;;;5077498;28;20055;-73
2023/05/22 12:26:02;;;;;;;10.65;6.82;;;30.00;59.40;;;;;;5076589;28;20023;-73
2023/05/22 12:28:31;;;;;;;10.20;7.35;;;29.80;58.00;;;;;;5077849;28;20024;-72
2023/05/22 12:30:57;;;;;;;11.57;7.50;;;30.10;60.60;;;;;;5060307;28;20359;-73